Terminal Aerodrome Forecast
Issued by NWS

Current Version | Previous Version | Text Only | Print | Product List | Glossary On
Versions: 1 2 3 4 5 6 7 8 9 10 11 12 13
000
FTUS44 KMAF 281724
TAFPEQ
TAF
KPEQ 281724Z 2818/2918 09008KT P6SM BKN060 BKN100
      TEMPO 2821/2901 VRB25G35KT 4SM TSRA BKN040CB
     FM290100 09006KT P6SM BKN050 BKN100
      TEMPO 2901/2905 VRB20G30KT 4SM TSRA BKN040CB
     FM290500 07005KT P6SM BKN050 BKN100
      TEMPO 2905/2909 4SM TSRA BR OVC030CB=

USA.gov is the U.S. government's official web portal to all federal, state and local government web resources and services.